sensor_id;sensor_type;location;lat;lon;timestamp;P1;durP1;ratioP1;P2;durP2;ratioP2
75542;SDS011;64129;53.508;10.476;2022-11-15T00:00:45;37.20;;;20.30;;
75542;SDS011;64129;53.508;10.476;2022-11-15T00:03:30;40.40;;;20.13;;
75542;SDS011;64129;53.508;10.476;2022-11-15T00:06:16;37.08;;;19.60;;
75542;SDS011;64129;53.508;10.476;2022-11-15T00:09:00;37.25;;;20.83;;
75542;SDS011;64129;53.508;10.476;2022-11-15T00:11:46;40.20;;;20.10;;
75542;SDS011;64129;53.508;10.476;2022-11-15T00:14:31;42.08;;;21.13;;
75542;SDS011;64129;53.508;10.476;2022-11-15T00:17:16;37.63;;;19.13;;
75542;SDS011;64129;53.508;10.476;2022-11-15T00:20:00;36.35;;;19.80;;
75542;SDS011;64129;53.508;10.476;2022-11-15T00:22:45;34.75;;;19.85;;
75542;SDS011;64129;53.508;10.476;2022-11-15T00:25:31;34.35;;;19.33;;
75542;SDS011;64129;53.508;10.476;2022-11-15T00:28:16;36.55;;;18.95;;
75542;SDS011;64129;53.508;10.476;2022-11-15T00:31:05;39.97;;;20.60;;
75542;SDS011;64129;53.508;10.476;2022-11-15T00:33:53;36.90;;;19.17;;
75542;SDS011;64129;53.508;10.476;2022-11-15T00:36:38;34.67;;;17.95;;
75542;SDS011;64129;53.508;10.476;2022-11-15T00:39:23;40.20;;;20.42;;
75542;SDS011;64129;53.508;10.476;2022-11-15T00:42:08;34.33;;;18.73;;
75542;SDS011;64129;53.508;10.476;2022-11-15T00:44:53;37.08;;;20.30;;
75542;SDS011;64129;53.508;10.476;2022-11-15T00:47:38;40.08;;;21.13;;
75542;SDS011;64129;53.508;10.476;2022-11-15T00:50:23;36.20;;;19.27;;
75542;SDS011;64129;53.508;10.476;2022-11-15T00:53:08;34.00;;;20.35;;
75542;SDS011;64129;53.508;10.476;2022-11-15T00:55:53;36.03;;;19.15;;
75542;SDS011;64129;53.508;10.476;2022-11-15T00:58:38;37.25;;;20.33;;
75542;SDS011;64129;53.508;10.476;2022-11-15T01:01:23;35.75;;;19.95;;
75542;SDS011;64129;53.508;10.476;2022-11-15T01:04:08;37.67;;;19.38;;
75542;SDS011;64129;53.508;10.476;2022-11-15T01:06:53;36.10;;;19.52;;
75542;SDS011;64129;53.508;10.476;2022-11-15T01:09:38;40.70;;;20.80;;
75542;SDS011;64129;53.508;10.476;2022-11-15T01:12:23;35.83;;;18.05;;
75542;SDS011;64129;53.508;10.476;2022-11-15T01:15:08;33.85;;;17.98;;
75542;SDS011;64129;53.508;10.476;2022-11-15T01:17:53;36.65;;;18.92;;
75542;SDS011;64129;53.508;10.476;2022-11-15T01:20:42;38.78;;;21.05;;
75542;SDS011;64129;53.508;10.476;2022-11-15T01:23:27;36.78;;;19.02;;
75542;SDS011;64129;53.508;10.476;2022-11-15T01:26:13;38.83;;;19.13;;
75542;SDS011;64129;53.508;10.476;2022-11-15T01:28:59;36.58;;;18.77;;
75542;SDS011;64129;53.508;10.476;2022-11-15T01:31:44;35.65;;;19.83;;
75542;SDS011;64129;53.508;10.476;2022-11-15T01:34:29;34.58;;;18.40;;
75542;SDS011;64129;53.508;10.476;2022-11-15T01:37:14;35.10;;;19.42;;
75542;SDS011;64129;53.508;10.476;2022-11-15T01:39:59;32.17;;;19.98;;
75542;SDS011;64129;53.508;10.476;2022-11-15T01:42:44;36.78;;;18.85;;
75542;SDS011;64129;53.508;10.476;2022-11-15T01:45:29;35.67;;;19.10;;
75542;SDS011;64129;53.508;10.476;2022-11-15T01:48:14;35.17;;;19.42;;
75542;SDS011;64129;53.508;10.476;2022-11-15T01:51:00;33.92;;;19.23;;
75542;SDS011;64129;53.508;10.476;2022-11-15T01:53:47;36.78;;;21.15;;
75542;SDS011;64129;53.508;10.476;2022-11-15T01:56:38;36.95;;;19.40;;
75542;SDS011;64129;53.508;10.476;2022-11-15T01:59:30;32.00;;;19.08;;
75542;SDS011;64129;53.508;10.476;2022-11-15T02:02:15;36.45;;;19.85;;
75542;SDS011;64129;53.508;10.476;2022-11-15T02:05:01;36.72;;;19.13;;
75542;SDS011;64129;53.508;10.476;2022-11-15T02:07:46;35.50;;;17.98;;
75542;SDS011;64129;53.508;10.476;2022-11-15T02:10:32;32.28;;;18.45;;
75542;SDS011;64129;53.508;10.476;2022-11-15T02:13:17;35.28;;;17.88;;
75542;SDS011;64129;53.508;10.476;2022-11-15T02:16:13;33.70;;;17.70;;
75542;SDS011;64129;53.508;10.476;2022-11-15T02:19:28;36.25;;;19.55;;
75542;SDS011;64129;53.508;10.476;2022-11-15T02:22:24;31.58;;;17.63;;
75542;SDS011;64129;53.508;10.476;2022-11-15T02:47:11;29.58;;;16.65;;
75542;SDS011;64129;53.508;10.476;2022-11-15T02:49:59;28.48;;;15.95;;
75542;SDS011;64129;53.508;10.476;2022-11-15T02:52:50;30.60;;;17.20;;
75542;SDS011;64129;53.508;10.476;2022-11-15T02:55:46;30.85;;;15.85;;
75542;SDS011;64129;53.508;10.476;2022-11-15T03:04:47;30.70;;;17.55;;
75542;SDS011;64129;53.508;10.476;2022-11-15T03:07:45;29.17;;;17.08;;
75542;SDS011;64129;53.508;10.476;2022-11-15T03:13:39;29.70;;;17.77;;
75542;SDS011;64129;53.508;10.476;2022-11-15T03:16:49;28.75;;;16.48;;
75542;SDS011;64129;53.508;10.476;2022-11-15T03:19:50;30.52;;;16.40;;
75542;SDS011;64129;53.508;10.476;2022-11-15T03:22:39;30.42;;;17.73;;
75542;SDS011;64129;53.508;10.476;2022-11-15T03:25:28;35.05;;;18.88;;
75542;SDS011;64129;53.508;10.476;2022-11-15T03:28:27;31.48;;;17.27;;
75542;SDS011;64129;53.508;10.476;2022-11-15T03:31:18;29.52;;;16.35;;
75542;SDS011;64129;53.508;10.476;2022-11-15T03:37:20;35.00;;;16.58;;
75542;SDS011;64129;53.508;10.476;2022-11-15T03:40:07;29.42;;;16.20;;
75542;SDS011;64129;53.508;10.476;2022-11-15T03:43:05;30.00;;;17.42;;
75542;SDS011;64129;53.508;10.476;2022-11-15T03:46:02;32.08;;;17.98;;
75542;SDS011;64129;53.508;10.476;2022-11-15T03:49:10;29.50;;;16.75;;
75542;SDS011;64129;53.508;10.476;2022-11-15T03:51:59;33.60;;;16.70;;
75542;SDS011;64129;53.508;10.476;2022-11-15T03:54:51;33.00;;;18.35;;
75542;SDS011;64129;53.508;10.476;2022-11-15T03:57:38;31.83;;;18.05;;
75542;SDS011;64129;53.508;10.476;2022-11-15T04:00:23;32.47;;;16.60;;
75542;SDS011;64129;53.508;10.476;2022-11-15T04:03:08;34.88;;;17.42;;
75542;SDS011;64129;53.508;10.476;2022-11-15T04:05:53;38.42;;;18.63;;
75542;SDS011;64129;53.508;10.476;2022-11-15T04:08:38;30.35;;;16.92;;
75542;SDS011;64129;53.508;10.476;2022-11-15T04:11:23;35.25;;;18.48;;
75542;SDS011;64129;53.508;10.476;2022-11-15T04:14:08;32.42;;;18.17;;
75542;SDS011;64129;53.508;10.476;2022-11-15T04:16:53;31.08;;;17.33;;
75542;SDS011;64129;53.508;10.476;2022-11-15T04:19:38;33.17;;;18.35;;
75542;SDS011;64129;53.508;10.476;2022-11-15T04:22:42;29.90;;;17.15;;
75542;SDS011;64129;53.508;10.476;2022-11-15T04:25:45;37.08;;;18.13;;
75542;SDS011;64129;53.508;10.476;2022-11-15T04:28:34;31.67;;;17.38;;
75542;SDS011;64129;53.508;10.476;2022-11-15T04:31:19;32.38;;;17.63;;
75542;SDS011;64129;53.508;10.476;2022-11-15T04:34:04;30.60;;;16.88;;
75542;SDS011;64129;53.508;10.476;2022-11-15T04:36:49;34.50;;;17.75;;
75542;SDS011;64129;53.508;10.476;2022-11-15T04:39:53;32.53;;;16.02;;
75542;SDS011;64129;53.508;10.476;2022-11-15T04:42:40;32.88;;;18.08;;
75542;SDS011;64129;53.508;10.476;2022-11-15T04:45:26;32.78;;;17.30;;
75542;SDS011;64129;53.508;10.476;2022-11-15T04:48:11;32.58;;;17.40;;
75542;SDS011;64129;53.508;10.476;2022-11-15T04:50:56;32.53;;;18.13;;
75542;SDS011;64129;53.508;10.476;2022-11-15T04:53:41;35.58;;;18.55;;
75542;SDS011;64129;53.508;10.476;2022-11-15T04:56:27;35.00;;;17.33;;
75542;SDS011;64129;53.508;10.476;2022-11-15T04:59:12;37.05;;;17.67;;
75542;SDS011;64129;53.508;10.476;2022-11-15T05:01:56;33.10;;;18.77;;
75542;SDS011;64129;53.508;10.476;2022-11-15T05:04:42;30.45;;;17.05;;
75542;SDS011;64129;53.508;10.476;2022-11-15T05:07:27;33.05;;;17.77;;
75542;SDS011;64129;53.508;10.476;2022-11-15T05:10:12;31.52;;;17.25;;
75542;SDS011;64129;53.508;10.476;2022-11-15T05:12:56;31.10;;;18.25;;
75542;SDS011;64129;53.508;10.476;2022-11-15T05:15:41;33.60;;;17.65;;
75542;SDS011;64129;53.508;10.476;2022-11-15T05:18:27;33.13;;;18.40;;
75542;SDS011;64129;53.508;10.476;2022-11-15T05:21:15;36.50;;;18.02;;
75542;SDS011;64129;53.508;10.476;2022-11-15T05:24:00;34.67;;;17.55;;
75542;SDS011;64129;53.508;10.476;2022-11-15T05:26:45;33.08;;;16.92;;
75542;SDS011;64129;53.508;10.476;2022-11-15T05:29:30;31.90;;;18.15;;
75542;SDS011;64129;53.508;10.476;2022-11-15T05:32:15;34.35;;;16.75;;
75542;SDS011;64129;53.508;10.476;2022-11-15T05:35:01;31.95;;;17.23;;
75542;SDS011;64129;53.508;10.476;2022-11-15T05:37:50;33.00;;;16.90;;
75542;SDS011;64129;53.508;10.476;2022-11-15T05:40:35;30.45;;;15.85;;
75542;SDS011;64129;53.508;10.476;2022-11-15T05:43:20;29.83;;;17.25;;
75542;SDS011;64129;53.508;10.476;2022-11-15T05:46:05;28.67;;;17.30;;
75542;SDS011;64129;53.508;10.476;2022-11-15T05:48:51;31.73;;;17.52;;
75542;SDS011;64129;53.508;10.476;2022-11-15T05:51:38;31.02;;;17.42;;
75542;SDS011;64129;53.508;10.476;2022-11-15T05:54:25;33.28;;;18.40;;
75542;SDS011;64129;53.508;10.476;2022-11-15T05:57:10;30.38;;;17.17;;
75542;SDS011;64129;53.508;10.476;2022-11-15T05:59:56;30.90;;;17.40;;
75542;SDS011;64129;53.508;10.476;2022-11-15T06:02:41;30.55;;;16.30;;
75542;SDS011;64129;53.508;10.476;2022-11-15T06:05:26;29.63;;;15.63;;
75542;SDS011;64129;53.508;10.476;2022-11-15T06:08:11;30.48;;;17.35;;
75542;SDS011;64129;53.508;10.476;2022-11-15T06:10:56;32.25;;;18.63;;
75542;SDS011;64129;53.508;10.476;2022-11-15T06:13:41;30.67;;;17.70;;
75542;SDS011;64129;53.508;10.476;2022-11-15T06:16:26;33.22;;;17.40;;
75542;SDS011;64129;53.508;10.476;2022-11-15T06:19:11;31.38;;;16.33;;
75542;SDS011;64129;53.508;10.476;2022-11-15T06:21:56;31.58;;;16.42;;
75542;SDS011;64129;53.508;10.476;2022-11-15T06:24:41;37.10;;;17.05;;
75542;SDS011;64129;53.508;10.476;2022-11-15T06:27:25;32.03;;;17.25;;
75542;SDS011;64129;53.508;10.476;2022-11-15T06:30:10;34.17;;;16.67;;
75542;SDS011;64129;53.508;10.476;2022-11-15T06:32:59;30.67;;;16.15;;
75542;SDS011;64129;53.508;10.476;2022-11-15T06:35:46;27.98;;;14.48;;
75542;SDS011;64129;53.508;10.476;2022-11-15T06:38:31;28.52;;;16.02;;
75542;SDS011;64129;53.508;10.476;2022-11-15T06:41:17;30.70;;;16.45;;
75542;SDS011;64129;53.508;10.476;2022-11-15T06:44:02;32.38;;;16.90;;
75542;SDS011;64129;53.508;10.476;2022-11-15T06:46:47;26.92;;;15.30;;
75542;SDS011;64129;53.508;10.476;2022-11-15T06:49:32;34.40;;;15.63;;
75542;SDS011;64129;53.508;10.476;2022-11-15T06:52:17;26.30;;;14.90;;
75542;SDS011;64129;53.508;10.476;2022-11-15T06:55:06;28.58;;;16.95;;
75542;SDS011;64129;53.508;10.476;2022-11-15T06:57:52;27.23;;;14.32;;
75542;SDS011;64129;53.508;10.476;2022-11-15T07:00:37;30.15;;;16.65;;
75542;SDS011;64129;53.508;10.476;2022-11-15T07:03:23;30.20;;;15.93;;
75542;SDS011;64129;53.508;10.476;2022-11-15T07:06:08;28.70;;;16.08;;
75542;SDS011;64129;53.508;10.476;2022-11-15T07:08:54;29.05;;;17.17;;
75542;SDS011;64129;53.508;10.476;2022-11-15T07:11:39;28.63;;;14.88;;
75542;SDS011;64129;53.508;10.476;2022-11-15T07:14:25;25.67;;;14.60;;
75542;SDS011;64129;53.508;10.476;2022-11-15T07:17:10;27.92;;;15.68;;
75542;SDS011;64129;53.508;10.476;2022-11-15T07:19:54;27.10;;;14.77;;
75542;SDS011;64129;53.508;10.476;2022-11-15T07:22:40;26.92;;;14.88;;
75542;SDS011;64129;53.508;10.476;2022-11-15T07:25:26;28.27;;;14.82;;
75542;SDS011;64129;53.508;10.476;2022-11-15T07:28:11;23.88;;;13.90;;
75542;SDS011;64129;53.508;10.476;2022-11-15T07:30:55;30.20;;;15.90;;
75542;SDS011;64129;53.508;10.476;2022-11-15T07:33:41;26.70;;;14.95;;
75542;SDS011;64129;53.508;10.476;2022-11-15T07:36:26;29.20;;;16.02;;
75542;SDS011;64129;53.508;10.476;2022-11-15T07:39:11;25.55;;;14.50;;
75542;SDS011;64129;53.508;10.476;2022-11-15T07:41:56;28.60;;;15.57;;
75542;SDS011;64129;53.508;10.476;2022-11-15T07:45:01;27.50;;;15.73;;
75542;SDS011;64129;53.508;10.476;2022-11-15T07:47:47;27.25;;;13.52;;
75542;SDS011;64129;53.508;10.476;2022-11-15T07:50:33;26.02;;;14.07;;
75542;SDS011;64129;53.508;10.476;2022-11-15T07:53:18;27.33;;;16.13;;
75542;SDS011;64129;53.508;10.476;2022-11-15T07:56:05;28.77;;;15.43;;
75542;SDS011;64129;53.508;10.476;2022-11-15T07:58:51;27.58;;;14.50;;
75542;SDS011;64129;53.508;10.476;2022-11-15T08:01:36;25.83;;;14.70;;
75542;SDS011;64129;53.508;10.476;2022-11-15T08:04:21;27.27;;;14.73;;
75542;SDS011;64129;53.508;10.476;2022-11-15T08:07:06;27.42;;;14.55;;
75542;SDS011;64129;53.508;10.476;2022-11-15T08:09:51;25.95;;;15.75;;
75542;SDS011;64129;53.508;10.476;2022-11-15T08:12:36;28.38;;;14.77;;
75542;SDS011;64129;53.508;10.476;2022-11-15T08:15:21;27.13;;;16.48;;
75542;SDS011;64129;53.508;10.476;2022-11-15T08:18:09;26.00;;;15.13;;
75542;SDS011;64129;53.508;10.476;2022-11-15T08:21:00;24.85;;;14.25;;
75542;SDS011;64129;53.508;10.476;2022-11-15T08:23:46;24.02;;;13.93;;
75542;SDS011;64129;53.508;10.476;2022-11-15T08:26:31;23.55;;;12.85;;
75542;SDS011;64129;53.508;10.476;2022-11-15T08:29:16;26.40;;;14.13;;
75542;SDS011;64129;53.508;10.476;2022-11-15T08:32:01;24.58;;;15.32;;
75542;SDS011;64129;53.508;10.476;2022-11-15T08:34:45;22.42;;;12.15;;
75542;SDS011;64129;53.508;10.476;2022-11-15T08:37:30;29.80;;;16.70;;
75542;SDS011;64129;53.508;10.476;2022-11-15T08:40:16;22.80;;;13.40;;
75542;SDS011;64129;53.508;10.476;2022-11-15T08:43:02;27.17;;;14.88;;
75542;SDS011;64129;53.508;10.476;2022-11-15T08:45:48;28.65;;;14.68;;
75542;SDS011;64129;53.508;10.476;2022-11-15T08:48:33;24.83;;;14.30;;
75542;SDS011;64129;53.508;10.476;2022-11-15T08:51:18;26.10;;;14.68;;
75542;SDS011;64129;53.508;10.476;2022-11-15T08:54:03;25.88;;;14.38;;
75542;SDS011;64129;53.508;10.476;2022-11-15T08:56:48;27.40;;;15.77;;
75542;SDS011;64129;53.508;10.476;2022-11-15T08:59:34;20.42;;;13.60;;
75542;SDS011;64129;53.508;10.476;2022-11-15T09:02:18;26.13;;;15.63;;
75542;SDS011;64129;53.508;10.476;2022-11-15T09:05:03;22.23;;;14.30;;
75542;SDS011;64129;53.508;10.476;2022-11-15T09:07:52;25.38;;;15.18;;
75542;SDS011;64129;53.508;10.476;2022-11-15T09:10:39;25.45;;;14.07;;
75542;SDS011;64129;53.508;10.476;2022-11-15T09:13:24;22.35;;;13.65;;
75542;SDS011;64129;53.508;10.476;2022-11-15T09:16:09;23.52;;;13.75;;
75542;SDS011;64129;53.508;10.476;2022-11-15T09:18:56;19.85;;;13.10;;
75542;SDS011;64129;53.508;10.476;2022-11-15T09:21:41;21.05;;;13.02;;
75542;SDS011;64129;53.508;10.476;2022-11-15T09:24:26;21.50;;;13.57;;
75542;SDS011;64129;53.508;10.476;2022-11-15T09:27:11;22.30;;;12.88;;
75542;SDS011;64129;53.508;10.476;2022-11-15T09:29:57;18.45;;;12.60;;
75542;SDS011;64129;53.508;10.476;2022-11-15T09:32:42;19.98;;;12.75;;
75542;SDS011;64129;53.508;10.476;2022-11-15T09:35:28;22.42;;;14.07;;
75542;SDS011;64129;53.508;10.476;2022-11-15T09:38:12;22.08;;;14.25;;
75542;SDS011;64129;53.508;10.476;2022-11-15T09:41:22;19.42;;;13.60;;
75542;SDS011;64129;53.508;10.476;2022-11-15T09:47:34;17.42;;;10.48;;
75542;SDS011;64129;53.508;10.476;2022-11-15T09:50:56;16.50;;;11.15;;
75542;SDS011;64129;53.508;10.476;2022-11-15T09:53:36;16.65;;;11.10;;
75542;SDS011;64129;53.508;10.476;2022-11-15T09:56:30;18.95;;;10.35;;
75542;SDS011;64129;53.508;10.476;2022-11-15T10:04:31;17.42;;;11.68;;
75542;SDS011;64129;53.508;10.476;2022-11-15T10:07:02;17.75;;;12.35;;
75542;SDS011;64129;53.508;10.476;2022-11-15T10:09:43;16.02;;;11.07;;
75542;SDS011;64129;53.508;10.476;2022-11-15T10:12:17;21.08;;;11.70;;
75542;SDS011;64129;53.508;10.476;2022-11-15T10:14:45;17.83;;;11.15;;
75542;SDS011;64129;53.508;10.476;2022-11-15T10:20:22;18.80;;;12.38;;
75542;SDS011;64129;53.508;10.476;2022-11-15T10:22:51;16.90;;;11.68;;
75542;SDS011;64129;53.508;10.476;2022-11-15T10:25:21;18.02;;;11.57;;
75542;SDS011;64129;53.508;10.476;2022-11-15T10:27:52;17.25;;;11.63;;
75542;SDS011;64129;53.508;10.476;2022-11-15T10:30:38;19.00;;;11.68;;
75542;SDS011;64129;53.508;10.476;2022-11-15T10:33:11;17.83;;;10.73;;
75542;SDS011;64129;53.508;10.476;2022-11-15T10:35:41;18.55;;;11.77;;
75542;SDS011;64129;53.508;10.476;2022-11-15T10:38:09;17.05;;;11.70;;
75542;SDS011;64129;53.508;10.476;2022-11-15T10:40:38;17.90;;;11.32;;
75542;SDS011;64129;53.508;10.476;2022-11-15T10:45:35;16.50;;;11.18;;
75542;SDS011;64129;53.508;10.476;2022-11-15T10:50:43;18.00;;;11.90;;
75542;SDS011;64129;53.508;10.476;2022-11-15T10:53:16;15.60;;;10.27;;
75542;SDS011;64129;53.508;10.476;2022-11-15T10:55:53;16.92;;;11.32;;
75542;SDS011;64129;53.508;10.476;2022-11-15T10:58:33;18.40;;;12.25;;
75542;SDS011;64129;53.508;10.476;2022-11-15T11:01:12;21.23;;;11.65;;
75542;SDS011;64129;53.508;10.476;2022-11-15T11:03:39;16.80;;;11.60;;
75542;SDS011;64129;53.508;10.476;2022-11-15T11:06:09;19.35;;;11.63;;
75542;SDS011;64129;53.508;10.476;2022-11-15T11:08:35;18.23;;;11.98;;
75542;SDS011;64129;53.508;10.476;2022-11-15T11:11:03;14.77;;;11.02;;
75542;SDS011;64129;53.508;10.476;2022-11-15T11:13:31;16.80;;;11.93;;
75542;SDS011;64129;53.508;10.476;2022-11-15T11:30:20;15.95;;;10.63;;
75542;SDS011;64129;53.508;10.476;2022-11-15T11:49:01;16.42;;;10.38;;
75542;SDS011;64129;53.508;10.476;2022-11-15T11:51:36;16.40;;;10.13;;
75542;SDS011;64129;53.508;10.476;2022-11-15T11:56:40;15.77;;;10.68;;
75542;SDS011;64129;53.508;10.476;2022-11-15T11:59:23;14.80;;;10.43;;
75542;SDS011;64129;53.508;10.476;2022-11-15T12:01:58;15.20;;;9.48;;
75542;SDS011;64129;53.508;10.476;2022-11-15T12:04:37;15.43;;;9.52;;
75542;SDS011;64129;53.508;10.476;2022-11-15T12:09:51;13.88;;;9.57;;
75542;SDS011;64129;53.508;10.476;2022-11-15T12:15:29;12.38;;;9.18;;
75542;SDS011;64129;53.508;10.476;2022-11-15T12:18:01;12.38;;;9.15;;
75542;SDS011;64129;53.508;10.476;2022-11-15T12:20:30;14.48;;;9.18;;
75542;SDS011;64129;53.508;10.476;2022-11-15T12:23:06;12.93;;;9.05;;
75542;SDS011;64129;53.508;10.476;2022-11-15T12:26:07;12.07;;;9.15;;
75542;SDS011;64129;53.508;10.476;2022-11-15T12:28:42;12.40;;;8.93;;
75542;SDS011;64129;53.508;10.476;2022-11-15T12:31:43;11.43;;;8.88;;
75542;SDS011;64129;53.508;10.476;2022-11-15T12:36:47;12.52;;;9.35;;
75542;SDS011;64129;53.508;10.476;2022-11-15T12:39:16;14.07;;;9.43;;
75542;SDS011;64129;53.508;10.476;2022-11-15T12:41:44;14.68;;;11.13;;
75542;SDS011;64129;53.508;10.476;2022-11-15T13:02:24;12.27;;;9.13;;
75542;SDS011;64129;53.508;10.476;2022-11-15T13:07:57;13.38;;;9.05;;
75542;SDS011;64129;53.508;10.476;2022-11-15T13:10:29;12.25;;;8.38;;
75542;SDS011;64129;53.508;10.476;2022-11-15T13:13:06;11.27;;;8.55;;
75542;SDS011;64129;53.508;10.476;2022-11-15T13:20:53;10.90;;;8.32;;
75542;SDS011;64129;53.508;10.476;2022-11-15T13:23:23;11.05;;;8.25;;
75542;SDS011;64129;53.508;10.476;2022-11-15T13:25:58;11.10;;;8.25;;
75542;SDS011;64129;53.508;10.476;2022-11-15T13:28:42;12.38;;;8.30;;
75542;SDS011;64129;53.508;10.476;2022-11-15T13:34:01;12.82;;;8.38;;
75542;SDS011;64129;53.508;10.476;2022-11-15T13:36:35;11.38;;;8.45;;
75542;SDS011;64129;53.508;10.476;2022-11-15T13:39:05;10.18;;;7.03;;
75542;SDS011;64129;53.508;10.476;2022-11-15T13:41:45;10.25;;;7.30;;
75542;SDS011;64129;53.508;10.476;2022-11-15T13:44:25;12.18;;;8.63;;
75542;SDS011;64129;53.508;10.476;2022-11-15T13:49:39;11.88;;;8.93;;
75542;SDS011;64129;53.508;10.476;2022-11-15T13:52:08;10.85;;;7.45;;
75542;SDS011;64129;53.508;10.476;2022-11-15T13:54:41;12.13;;;7.85;;
75542;SDS011;64129;53.508;10.476;2022-11-15T14:00:25;13.70;;;8.27;;
75542;SDS011;64129;53.508;10.476;2022-11-15T14:03:27;14.00;;;8.98;;
75542;SDS011;64129;53.508;10.476;2022-11-15T14:06:03;13.65;;;8.05;;
75542;SDS011;64129;53.508;10.476;2022-11-15T14:08:41;11.43;;;7.68;;
75542;SDS011;64129;53.508;10.476;2022-11-15T14:11:23;11.73;;;7.72;;
75542;SDS011;64129;53.508;10.476;2022-11-15T14:14:11;10.95;;;7.97;;
75542;SDS011;64129;53.508;10.476;2022-11-15T14:24:47;10.77;;;7.93;;
75542;SDS011;64129;53.508;10.476;2022-11-15T14:27:31;11.93;;;8.13;;
75542;SDS011;64129;53.508;10.476;2022-11-15T14:29:59;10.90;;;8.05;;
75542;SDS011;64129;53.508;10.476;2022-11-15T14:32:30;11.88;;;8.32;;
75542;SDS011;64129;53.508;10.476;2022-11-15T14:35:12;11.40;;;7.78;;
75542;SDS011;64129;53.508;10.476;2022-11-15T14:37:42;9.82;;;7.25;;
75542;SDS011;64129;53.508;10.476;2022-11-15T14:40:11;9.32;;;7.85;;
75542;SDS011;64129;53.508;10.476;2022-11-15T14:42:39;11.60;;;8.20;;
75542;SDS011;64129;53.508;10.476;2022-11-15T14:45:26;12.05;;;7.85;;
75542;SDS011;64129;53.508;10.476;2022-11-15T14:47:53;12.13;;;8.18;;
75542;SDS011;64129;53.508;10.476;2022-11-15T14:50:20;12.18;;;8.75;;
75542;SDS011;64129;53.508;10.476;2022-11-15T14:52:47;12.10;;;8.48;;
75542;SDS011;64129;53.508;10.476;2022-11-15T14:55:19;12.63;;;8.88;;
75542;SDS011;64129;53.508;10.476;2022-11-15T14:57:54;17.30;;;9.27;;
75542;SDS011;64129;53.508;10.476;2022-11-15T15:00:21;12.63;;;8.68;;
75542;SDS011;64129;53.508;10.476;2022-11-15T15:02:48;10.88;;;7.30;;
75542;SDS011;64129;53.508;10.476;2022-11-15T15:05:19;9.73;;;7.35;;
75542;SDS011;64129;53.508;10.476;2022-11-15T15:07:47;12.07;;;8.00;;
75542;SDS011;64129;53.508;10.476;2022-11-15T15:10:14;11.88;;;7.63;;
75542;SDS011;64129;53.508;10.476;2022-11-15T15:13:01;12.57;;;8.85;;
75542;SDS011;64129;53.508;10.476;2022-11-15T15:15:35;13.43;;;8.85;;
75542;SDS011;64129;53.508;10.476;2022-11-15T15:18:05;14.15;;;9.15;;
75542;SDS011;64129;53.508;10.476;2022-11-15T15:20:34;13.05;;;9.88;;
75542;SDS011;64129;53.508;10.476;2022-11-15T15:23:03;16.92;;;10.93;;
75542;SDS011;64129;53.508;10.476;2022-11-15T15:25:31;13.85;;;9.70;;
75542;SDS011;64129;53.508;10.476;2022-11-15T15:27:59;9.52;;;7.82;;
75542;SDS011;64129;53.508;10.476;2022-11-15T15:30:26;11.05;;;8.73;;
75542;SDS011;64129;53.508;10.476;2022-11-15T15:32:54;11.55;;;8.30;;
75542;SDS011;64129;53.508;10.476;2022-11-15T15:35:21;11.70;;;8.30;;
75542;SDS011;64129;53.508;10.476;2022-11-15T15:37:48;11.18;;;8.10;;
75542;SDS011;64129;53.508;10.476;2022-11-15T15:40:17;12.68;;;8.07;;
75542;SDS011;64129;53.508;10.476;2022-11-15T15:42:48;12.27;;;8.18;;
75542;SDS011;64129;53.508;10.476;2022-11-15T15:45:16;10.45;;;7.70;;
75542;SDS011;64129;53.508;10.476;2022-11-15T15:47:43;12.27;;;8.52;;
75542;SDS011;64129;53.508;10.476;2022-11-15T15:50:24;14.27;;;8.52;;
75542;SDS011;64129;53.508;10.476;2022-11-15T15:52:53;11.68;;;7.82;;
75542;SDS011;64129;53.508;10.476;2022-11-15T15:55:21;11.15;;;8.15;;
75542;SDS011;64129;53.508;10.476;2022-11-15T15:57:48;11.40;;;8.88;;
75542;SDS011;64129;53.508;10.476;2022-11-15T16:00:16;12.98;;;9.43;;
75542;SDS011;64129;53.508;10.476;2022-11-15T16:02:43;13.95;;;9.27;;
75542;SDS011;64129;53.508;10.476;2022-11-15T16:05:09;12.65;;;9.43;;
75542;SDS011;64129;53.508;10.476;2022-11-15T16:07:37;11.63;;;8.13;;
75542;SDS011;64129;53.508;10.476;2022-11-15T16:10:14;11.88;;;7.78;;
75542;SDS011;64129;53.508;10.476;2022-11-15T16:12:53;11.35;;;8.20;;
75542;SDS011;64129;53.508;10.476;2022-11-15T16:15:20;14.68;;;8.60;;
75542;SDS011;64129;53.508;10.476;2022-11-15T16:20:36;11.50;;;8.57;;
75542;SDS011;64129;53.508;10.476;2022-11-15T16:23:06;12.00;;;8.82;;
75542;SDS011;64129;53.508;10.476;2022-11-15T16:25:40;12.35;;;8.50;;
75542;SDS011;64129;53.508;10.476;2022-11-15T16:28:25;12.88;;;9.38;;
75542;SDS011;64129;53.508;10.476;2022-11-15T16:31:03;13.65;;;7.85;;
75542;SDS011;64129;53.508;10.476;2022-11-15T16:33:30;12.60;;;8.57;;
75542;SDS011;64129;53.508;10.476;2022-11-15T16:35:57;13.27;;;8.57;;
75542;SDS011;64129;53.508;10.476;2022-11-15T16:38:23;11.38;;;8.63;;
75542;SDS011;64129;53.508;10.476;2022-11-15T16:40:50;11.27;;;8.82;;
75542;SDS011;64129;53.508;10.476;2022-11-15T16:43:16;13.07;;;8.93;;
75542;SDS011;64129;53.508;10.476;2022-11-15T16:45:43;12.43;;;8.40;;
75542;SDS011;64129;53.508;10.476;2022-11-15T16:48:18;13.95;;;8.88;;
75542;SDS011;64129;53.508;10.476;2022-11-15T16:50:47;12.75;;;8.90;;
75542;SDS011;64129;53.508;10.476;2022-11-15T16:53:15;14.45;;;8.70;;
75542;SDS011;64129;53.508;10.476;2022-11-15T16:55:41;11.43;;;8.85;;
75542;SDS011;64129;53.508;10.476;2022-11-15T16:58:08;14.50;;;8.63;;
75542;SDS011;64129;53.508;10.476;2022-11-15T17:00:35;12.98;;;9.30;;
75542;SDS011;64129;53.508;10.476;2022-11-15T17:03:01;12.32;;;8.57;;
75542;SDS011;64129;53.508;10.476;2022-11-15T17:05:28;12.73;;;8.40;;
75542;SDS011;64129;53.508;10.476;2022-11-15T17:07:55;13.43;;;9.05;;
75542;SDS011;64129;53.508;10.476;2022-11-15T17:10:22;10.98;;;7.82;;
75542;SDS011;64129;53.508;10.476;2022-11-15T17:12:50;12.73;;;9.00;;
75542;SDS011;64129;53.508;10.476;2022-11-15T17:15:18;13.65;;;8.73;;
75542;SDS011;64129;53.508;10.476;2022-11-15T17:17:49;12.35;;;8.30;;
75542;SDS011;64129;53.508;10.476;2022-11-15T17:20:20;11.40;;;8.50;;
75542;SDS011;64129;53.508;10.476;2022-11-15T17:22:48;12.52;;;8.63;;
75542;SDS011;64129;53.508;10.476;2022-11-15T17:25:15;12.65;;;8.60;;
75542;SDS011;64129;53.508;10.476;2022-11-15T17:27:42;9.98;;;7.25;;
75542;SDS011;64129;53.508;10.476;2022-11-15T17:30:09;12.65;;;8.82;;
75542;SDS011;64129;53.508;10.476;2022-11-15T17:32:38;10.25;;;8.20;;
75542;SDS011;64129;53.508;10.476;2022-11-15T17:35:04;14.57;;;9.00;;
75542;SDS011;64129;53.508;10.476;2022-11-15T17:37:37;11.07;;;7.50;;
75542;SDS011;64129;53.508;10.476;2022-11-15T17:40:04;10.20;;;7.35;;
75542;SDS011;64129;53.508;10.476;2022-11-15T17:42:31;12.13;;;8.20;;
75542;SDS011;64129;53.508;10.476;2022-11-15T17:44:57;12.30;;;8.20;;
75542;SDS011;64129;53.508;10.476;2022-11-15T17:47:24;11.93;;;7.85;;
75542;SDS011;64129;53.508;10.476;2022-11-15T17:49:50;13.32;;;8.45;;